Time;durP1;ratioP1;P1;durP2;ratioP2;P2;SDS_P1;SDS_P2;PMS_P1;PMS_P2;Temp;Humidity;BMP_temperature;BMP_pressure;BME280_temperature;BME280_humidity;BME280_pressure;Samples;Min_cycle;Max_cycle;Signal;HPM_P1;HPM_P2
2022/11/11 00:00:46;;;;;;;27.55;19.65;;;8.20;84.60;;;;;;5076321;28;20105;-18
2022/11/11 00:03:15;;;;;;;26.42;16.90;;;8.20;84.60;;;;;;5076330;28;20027;-17
2022/11/11 00:05:41;;;;;;;20.13;15.23;;;8.20;84.60;;;;;;5076102;28;20031;-17
2022/11/11 00:08:07;;;;;;;22.90;16.92;;;8.20;84.70;;;;;;5076409;28;20028;-17
2022/11/11 00:10:33;;;;;;;26.98;20.10;;;8.20;84.70;;;;;;5076484;28;20392;-16
2022/11/11 00:13:04;;;;;;;21.38;15.63;;;8.20;84.70;;;;;;5075756;28;20391;-17
2022/11/11 00:15:30;;;;;;;25.33;19.27;;;8.20;84.70;;;;;;5075996;28;20036;-16
2022/11/11 00:26:14;;;;;;;29.75;21.65;;;8.10;84.60;;;;;;5076109;28;20082;-17
2022/11/11 00:28:40;;;;;;;31.10;22.38;;;8.10;84.50;;;;;;5076007;28;20032;-17
2022/11/11 00:31:09;;;;;;;27.73;20.67;;;8.00;84.50;;;;;;5075508;28;20028;-15
2022/11/11 00:33:35;;;;;;;39.63;25.08;;;8.00;84.50;;;;;;5075990;28;20067;-17
2022/11/11 00:36:01;;;;;;;26.38;19.23;;;7.90;84.50;;;;;;5074652;28;20016;-17
2022/11/11 00:38:46;;;;;;;27.08;18.27;;;7.90;84.50;;;;;;5074613;28;20047;-15
2022/11/11 00:41:15;;;;;;;27.95;20.90;;;7.90;84.60;;;;;;5075897;28;20146;-17
2022/11/11 00:43:43;;;;;;;35.92;24.45;;;8.00;84.70;;;;;;5075445;28;20025;-17
2022/11/11 00:51:39;;;;;;;17.45;13.93;;;7.90;84.70;;;;;;5075462;28;20083;-18
2022/11/11 00:54:05;;;;;;;29.73;20.30;;;7.90;84.60;;;;;;5075271;28;20024;-16
2022/11/11 00:56:31;;;;;;;19.05;14.77;;;7.90;84.70;;;;;;5075373;28;20021;-17
2022/11/11 00:58:58;;;;;;;25.60;18.45;;;7.80;84.60;;;;;;5073555;28;20036;-18
2022/11/11 01:01:24;;;;;;;20.98;16.20;;;7.80;84.60;;;;;;5073966;28;20028;-18
2022/11/11 01:03:50;;;;;;;20.92;15.40;;;7.80;84.60;;;;;;5075096;28;20498;-16
2022/11/11 01:06:16;;;;;;;20.15;14.75;;;7.80;84.50;;;;;;5074977;28;20021;-16
2022/11/11 01:08:42;;;;;;;17.88;14.32;;;7.80;84.50;;;;;;5074252;28;20020;-17
2022/11/11 01:11:17;;;;;;;23.38;16.83;;;7.80;84.50;;;;;;5074710;28;20508;-18
2022/11/11 01:13:43;;;;;;;23.90;15.63;;;7.70;84.50;;;;;;5075108;28;20096;-17
2022/11/11 01:16:15;;;;;;;21.58;16.52;;;7.70;84.50;;;;;;5074883;28;20107;-17
2022/11/11 01:18:42;;;;;;;29.45;21.05;;;7.70;84.50;;;;;;5074773;28;20037;-16
2022/11/11 01:21:12;;;;;;;38.33;24.70;;;7.70;84.50;;;;;;5074861;28;20029;-19
2022/11/11 01:23:40;;;;;;;32.67;24.20;;;7.60;84.50;;;;;;5075058;28;20070;-15
2022/11/11 01:26:27;;;;;;;35.10;24.83;;;7.60;84.50;;;;;;5074707;28;20044;-15
2022/11/11 01:28:55;;;;;;;33.75;22.42;;;7.60;84.40;;;;;;5074517;28;20391;-14
2022/11/11 01:31:23;;;;;;;30.83;22.70;;;7.50;84.50;;;;;;5074818;28;20502;-17
2022/11/11 01:33:49;;;;;;;31.80;21.83;;;7.50;84.40;;;;;;5074857;28;20131;-14
2022/11/11 01:36:20;;;;;;;35.40;23.83;;;7.50;84.50;;;;;;5074680;28;20070;-16
2022/11/11 01:39:04;;;;;;;27.08;21.02;;;7.50;84.70;;;;;;5074520;28;20043;-17
2022/11/11 01:41:33;;;;;;;25.77;18.70;;;7.60;84.70;;;;;;5074400;28;20026;-15
2022/11/11 01:44:16;;;;;;;30.02;20.60;;;7.60;84.70;;;;;;5074342;28;20082;-16
2022/11/11 01:46:48;;;;;;;29.67;20.70;;;7.60;84.70;;;;;;5074421;28;20025;-17
2022/11/11 01:49:43;;;;;;;30.00;20.45;;;7.60;84.80;;;;;;5074704;28;20028;-15
2022/11/11 01:52:30;;;;;;;22.45;16.17;;;7.60;84.60;;;;;;5051959;28;20036;-16
2022/11/11 01:55:03;;;;;;;32.25;15.32;;;7.60;84.60;;;;;;5051845;28;20025;-17
2022/11/11 01:57:50;;;;;;;30.40;16.85;;;7.60;84.60;;;;;;5051194;28;20045;-16
2022/11/11 02:00:18;;;;;;;23.27;15.77;;;7.50;84.60;;;;;;5051993;28;20175;-17
2022/11/11 02:03:05;;;;;;;20.98;14.50;;;7.40;84.60;;;;;;5052047;28;20041;-15
2022/11/11 02:05:47;;;;;;;22.73;15.60;;;7.40;84.50;;;;;;5052346;28;20112;-17
2022/11/11 02:08:32;;;;;;;22.92;16.52;;;7.40;84.50;;;;;;5051948;28;20029;-16
2022/11/11 02:11:04;;;;;;;19.20;13.27;;;7.40;84.60;;;;;;5051569;28;20115;-18
2022/11/11 02:16:15;;;;;;;21.75;14.70;;;7.40;84.70;;;;;;5052147;28;20111;-18
2022/11/11 02:18:42;;;;;;;19.30;14.15;;;7.30;84.60;;;;;;5051517;28;20040;-16
2022/11/11 02:21:18;;;;;;;17.17;13.05;;;7.30;84.60;;;;;;5051531;28;20089;-17
2022/11/11 02:23:53;;;;;;;29.55;13.57;;;7.30;84.60;;;;;;5051662;28;20055;-18
2022/11/11 02:26:22;;;;;;;19.92;14.15;;;7.20;84.50;;;;;;5051231;28;20033;-15
2022/11/11 02:28:50;;;;;;;23.80;15.02;;;7.20;84.50;;;;;;5061402;28;20040;-18
2022/11/11 02:31:17;;;;;;;15.27;11.52;;;7.20;84.50;;;;;;5073749;28;20028;-16
2022/11/11 02:33:43;;;;;;;18.83;13.65;;;7.10;84.50;;;;;;5073344;28;20035;-18
2022/11/11 02:36:14;;;;;;;20.88;14.30;;;7.10;84.50;;;;;;5073697;28;20029;-16
2022/11/11 02:38:42;;;;;;;19.38;13.75;;;7.10;84.50;;;;;;5073333;28;20032;-16
2022/11/11 02:43:52;;;;;;;16.60;12.55;;;7.10;84.50;;;;;;5073590;28;20167;-16
2022/11/11 02:46:18;;;;;;;18.55;12.65;;;7.00;84.50;;;;;;5073492;28;20107;-18
2022/11/11 02:48:44;;;;;;;17.08;13.10;;;7.00;84.50;;;;;;5073274;28;20471;-16
2022/11/11 02:51:10;;;;;;;15.88;11.70;;;7.00;84.50;;;;;;5073009;28;20028;-17
2022/11/11 02:53:36;;;;;;;18.50;14.02;;;6.90;84.50;;;;;;5073494;28;20086;-16
2022/11/11 02:56:05;;;;;;;16.52;11.85;;;6.90;84.50;;;;;;5073439;28;20471;-17
2022/11/11 02:58:32;;;;;;;18.15;12.32;;;6.90;84.50;;;;;;5072884;28;20557;-18
2022/11/11 03:00:58;;;;;;;13.65;10.15;;;6.90;84.50;;;;;;5071802;28;20032;-17
2022/11/11 03:03:24;;;;;;;16.13;12.35;;;6.90;84.40;;;;;;5072978;28;20020;-18
2022/11/11 03:05:50;;;;;;;55.78;14.73;;;6.80;84.50;;;;;;5073335;28;20082;-17
2022/11/11 03:08:16;;;;;;;19.35;13.77;;;6.80;84.50;;;;;;5072832;28;20025;-18
2022/11/11 03:10:42;;;;;;;15.45;11.30;;;6.80;84.50;;;;;;5073022;28;20040;-17
2022/11/11 03:13:08;;;;;;;16.88;13.43;;;6.80;84.50;;;;;;5073032;28;20032;-17
2022/11/11 03:15:34;;;;;;;16.23;12.05;;;6.80;84.40;;;;;;5073508;28;20024;-18
2022/11/11 03:17:59;;;;;;;20.15;13.30;;;6.80;84.50;;;;;;5073341;28;20041;-18
2022/11/11 03:23:13;;;;;;;18.95;14.20;;;6.80;84.40;;;;;;5073044;28;20035;-15
2022/11/11 03:25:45;;;;;;;24.85;17.85;;;6.80;84.50;;;;;;5072795;28;20492;-17
2022/11/11 03:28:10;;;;;;;23.35;17.77;;;6.70;84.50;;;;;;5072638;28;20124;-15
2022/11/11 03:30:39;;;;;;;26.95;18.60;;;6.70;84.40;;;;;;5072904;28;20152;-15
2022/11/11 03:33:05;;;;;;;19.17;14.15;;;6.70;84.40;;;;;;5072577;28;20082;-16
2022/11/11 03:35:31;;;;;;;25.23;17.33;;;6.70;84.50;;;;;;5073051;28;20408;-16
2022/11/11 03:40:43;;;;;;;18.08;12.43;;;6.70;84.60;;;;;;5072822;28;20048;-17
2022/11/11 03:43:12;;;;;;;23.88;15.27;;;6.70;84.50;;;;;;5072640;28;20053;-16
2022/11/11 03:45:38;;;;;;;26.35;17.38;;;6.70;84.60;;;;;;5072659;28;20111;-17
2022/11/11 03:48:05;;;;;;;33.25;17.65;;;6.70;84.60;;;;;;5072615;28;20116;-16
2022/11/11 03:50:31;;;;;;;22.70;16.38;;;6.60;84.60;;;;;;5072598;28;20112;-16
2022/11/11 03:52:57;;;;;;;22.52;16.08;;;6.60;84.50;;;;;;5072482;28;20031;-17
2022/11/11 03:55:23;;;;;;;20.25;14.88;;;6.60;84.60;;;;;;5072533;28;20029;-16
2022/11/11 03:57:49;;;;;;;22.02;15.27;;;6.50;84.70;;;;;;5072435;28;20071;-16
2022/11/11 04:00:27;;;;;;;23.15;16.50;;;6.60;84.70;;;;;;5071561;28;20513;-15
2022/11/11 04:11:30;;;;;;;20.77;14.50;;;6.50;84.60;;;;;;5073162;28;20495;-16
2022/11/11 04:16:49;;;;;;;25.00;17.45;;;6.40;84.60;;;;;;5043238;28;20404;-16
2022/11/11 04:21:59;;;;;;;27.77;18.15;;;6.50;84.70;;;;;;5076102;28;20113;-17
2022/11/11 04:27:12;;;;;;;26.33;18.02;;;6.40;84.80;;;;;;5075681;28;20454;-15
2022/11/11 04:29:38;;;;;;;29.27;19.13;;;6.40;84.80;;;;;;5075787;28;20025;-16
2022/11/11 04:34:55;;;;;;;17.50;13.02;;;6.40;84.90;;;;;;5075811;28;20104;-15
2022/11/11 04:37:24;;;;;;;20.33;13.13;;;6.40;85.00;;;;;;5075833;28;20109;-15
2022/11/11 04:42:35;;;;;;;17.55;12.40;;;6.30;84.90;;;;;;5075887;28;20515;-16
2022/11/11 04:47:54;;;;;;;21.40;14.38;;;6.40;85.00;;;;;;5075806;28;20097;-15
2022/11/11 04:50:21;;;;;;;26.42;18.48;;;6.40;85.00;;;;;;5075719;28;20029;-18
2022/11/11 04:52:47;;;;;;;18.65;14.75;;;6.40;85.00;;;;;;5075323;28;20103;-17
2022/11/11 04:57:58;;;;;;;27.50;18.98;;;6.40;85.00;;;;;;5075347;28;20043;-17
2022/11/11 05:00:24;;;;;;;16.20;11.45;;;6.40;85.00;;;;;;5075509;28;20024;-18
2022/11/11 05:11:07;;;;;;;28.95;12.05;;;6.30;84.90;;;;;;5075188;28;20018;-17
2022/11/11 05:22:00;;;;;;;14.15;10.90;;;6.20;84.90;;;;;;5075173;28;20105;-18
2022/11/11 05:27:10;;;;;;;15.02;10.73;;;6.20;84.80;;;;;;5074314;28;20140;-16
2022/11/11 05:29:36;;;;;;;27.92;17.85;;;6.20;84.80;;;;;;5074829;28;20036;-17
2022/11/11 05:32:03;;;;;;;27.95;18.48;;;6.20;84.80;;;;;;5073776;28;20021;-18
2022/11/11 05:34:29;;;;;;;21.70;14.68;;;6.10;84.70;;;;;;5074576;28;20024;-17
2022/11/11 05:36:55;;;;;;;18.33;12.80;;;6.10;84.80;;;;;;5074312;28;20032;-16
2022/11/11 05:39:21;;;;;;;22.83;15.52;;;6.10;84.90;;;;;;5074767;28;20032;-17
2022/11/11 05:41:47;;;;;;;20.45;13.52;;;6.10;84.90;;;;;;5074624;28;20129;-18
2022/11/11 05:44:13;;;;;;;23.70;15.90;;;6.00;84.90;;;;;;5074570;28;20025;-16
2022/11/11 05:46:39;;;;;;;20.77;14.68;;;6.00;85.00;;;;;;5074547;28;20188;-18
2022/11/11 05:49:16;;;;;;;24.48;17.20;;;6.10;85.00;;;;;;5074405;28;20480;-18
2022/11/11 05:51:43;;;;;;;18.83;12.57;;;6.10;85.00;;;;;;5074648;28;20090;-18
2022/11/11 05:54:10;;;;;;;13.73;9.98;;;6.10;85.00;;;;;;5074120;28;20365;-18
2022/11/11 05:56:36;;;;;;;16.27;11.65;;;6.10;85.10;;;;;;5074257;28;20548;-18
2022/11/11 05:59:02;;;;;;;18.70;12.50;;;6.10;85.00;;;;;;5073580;28;20111;-18
2022/11/11 06:01:28;;;;;;;27.73;16.27;;;6.10;85.00;;;;;;5072786;28;20067;-18
2022/11/11 06:03:54;;;;;;;29.25;18.23;;;6.00;84.90;;;;;;5074109;28;20369;-17
2022/11/11 06:06:20;;;;;;;19.58;13.55;;;6.00;84.90;;;;;;5073878;28;20063;-17
2022/11/11 06:08:46;;;;;;;14.52;10.32;;;6.00;85.00;;;;;;5074065;28;20107;-18
2022/11/11 06:11:13;;;;;;;24.20;16.45;;;6.00;85.00;;;;;;5073817;28;20029;-17
2022/11/11 06:13:39;;;;;;;17.17;11.30;;;6.00;85.00;;;;;;5073645;28;20029;-16
2022/11/11 06:16:05;;;;;;;24.95;15.40;;;6.00;85.00;;;;;;5074019;28;20059;-18
2022/11/11 06:18:31;;;;;;;20.95;14.32;;;6.00;84.90;;;;;;5073623;28;20492;-19
2022/11/11 06:20:58;;;;;;;18.67;13.18;;;6.00;84.80;;;;;;5073520;28;20063;-18
2022/11/11 06:23:26;;;;;;;22.40;16.63;;;6.00;84.90;;;;;;5073944;28;20391;-18
2022/11/11 06:28:47;;;;;;;25.50;18.40;;;6.00;85.10;;;;;;5073366;28;20453;-17
2022/11/11 06:31:18;;;;;;;20.30;14.00;;;6.00;85.10;;;;;;5073849;28;20029;-18
2022/11/11 06:33:44;;;;;;;22.98;16.75;;;6.00;85.20;;;;;;5073731;28;20047;-13
2022/11/11 06:36:12;;;;;;;18.25;13.20;;;6.10;85.30;;;;;;5073584;28;20030;-15
2022/11/11 06:38:39;;;;;;;20.05;14.77;;;6.20;85.40;;;;;;5073292;28;20039;-16
2022/11/11 06:41:06;;;;;;;21.58;16.75;;;6.30;85.50;;;;;;5071934;28;20558;-17
2022/11/11 06:43:33;;;;;;;22.33;16.83;;;6.40;85.50;;;;;;5072919;28;20028;-17
2022/11/11 06:45:59;;;;;;;22.98;16.40;;;6.50;85.60;;;;;;5073475;28;20464;-17
2022/11/11 06:48:27;;;;;;;18.92;14.10;;;6.50;85.60;;;;;;5073299;28;20025;-16
2022/11/11 06:50:54;;;;;;;20.48;15.38;;;6.60;85.70;;;;;;5072996;28;20537;-16
2022/11/11 06:53:21;;;;;;;20.52;15.02;;;6.80;85.70;;;;;;5073192;28;20031;-18
2022/11/11 06:55:47;;;;;;;18.10;14.25;;;6.90;85.80;;;;;;5073474;28;20380;-17
2022/11/11 06:58:19;;;;;;;16.05;12.05;;;7.10;85.90;;;;;;5073232;28;20040;-14
2022/11/11 07:00:46;;;;;;;18.45;12.73;;;7.40;85.90;;;;;;5073200;28;20030;-16
2022/11/11 07:03:14;;;;;;;18.40;13.25;;;7.60;85.90;;;;;;5072803;28;20036;-16
2022/11/11 07:05:42;;;;;;;21.75;15.75;;;7.90;85.60;;;;;;5073467;28;20028;-17
2022/11/11 07:08:13;;;;;;;27.73;19.92;;;8.20;85.40;;;;;;5073242;28;20035;-17
2022/11/11 07:10:43;;;;;;;23.25;17.00;;;8.40;85.20;;;;;;5073124;28;20020;-18
2022/11/11 07:13:09;;;;;;;34.17;23.55;;;8.60;84.90;;;;;;5072750;28;20496;-18
2022/11/11 07:15:36;;;;;;;29.90;20.88;;;8.70;84.80;;;;;;5073295;28;20027;-16
2022/11/11 07:18:02;;;;;;;24.35;18.85;;;8.80;84.80;;;;;;5072921;28;20464;-14
2022/11/11 07:20:29;;;;;;;29.80;18.35;;;8.90;84.90;;;;;;5073230;28;20111;-16
2022/11/11 07:22:55;;;;;;;25.25;16.25;;;9.10;84.80;;;;;;5073066;28;20426;-14
2022/11/11 07:25:22;;;;;;;21.30;16.67;;;9.30;84.70;;;;;;5073227;28;20468;-14
2022/11/11 07:27:48;;;;;;;20.77;13.80;;;9.50;84.40;;;;;;5072602;28;20128;-16
2022/11/11 07:30:14;;;;;;;19.92;14.77;;;9.60;84.10;;;;;;5073156;28;20440;-17
2022/11/11 07:32:45;;;;;;;19.33;13.95;;;9.70;83.90;;;;;;5072961;28;20023;-16
2022/11/11 07:35:15;;;;;;;19.25;14.02;;;9.90;83.40;;;;;;5072630;28;20056;-17
2022/11/11 07:37:41;;;;;;;17.48;12.40;;;9.90;83.20;;;;;;5072675;28;20028;-17
2022/11/11 07:40:09;;;;;;;19.10;13.48;;;9.90;83.30;;;;;;5072730;28;20078;-15
2022/11/11 07:42:36;;;;;;;16.75;12.85;;;9.90;83.30;;;;;;5071443;28;20025;-17
2022/11/11 07:45:03;;;;;;;13.57;10.50;;;10.00;83.00;;;;;;5072810;28;20036;-18
2022/11/11 07:47:29;;;;;;;23.65;15.95;;;10.20;83.00;;;;;;5072827;28;20055;-16
2022/11/11 07:49:55;;;;;;;17.15;12.63;;;10.20;83.00;;;;;;5072680;28;20036;-17
2022/11/11 07:52:22;;;;;;;16.90;12.52;;;10.30;83.00;;;;;;5072621;28;20116;-16
2022/11/11 07:54:49;;;;;;;14.25;11.30;;;10.40;82.90;;;;;;5072720;28;20032;-18
2022/11/11 07:57:15;;;;;;;16.50;13.23;;;10.50;82.70;;;;;;5076318;28;20053;-18
2022/11/11 07:59:41;;;;;;;28.77;20.67;;;10.60;82.60;;;;;;5075018;28;20024;-18
2022/11/11 08:02:11;;;;;;;23.13;16.83;;;10.70;83.20;;;;;;5075255;28;20029;-17
2022/11/11 08:04:40;;;;;;;22.13;16.48;;;10.80;82.90;;;;;;5076256;28;20020;-16
2022/11/11 08:07:06;;;;;;;22.98;16.25;;;10.80;83.00;;;;;;5076254;28;20025;-17
2022/11/11 08:09:32;;;;;;;24.13;18.60;;;10.90;83.00;;;;;;5076109;28;20387;-16
2022/11/11 08:14:42;;;;;;;26.40;19.35;;;11.10;83.00;;;;;;5076350;28;20032;-17
2022/11/11 08:17:08;;;;;;;26.02;18.73;;;11.20;82.50;;;;;;5075676;28;20484;-18
2022/11/11 08:19:34;;;;;;;19.50;15.85;;;11.30;82.60;;;;;;5076475;28;20116;-17
2022/11/11 08:22:00;;;;;;;19.05;15.15;;;11.40;82.20;;;;;;5075912;28;20395;-16
2022/11/11 08:24:26;;;;;;;20.63;15.20;;;11.40;82.30;;;;;;5075868;28;20059;-17
2022/11/11 08:26:53;;;;;;;17.95;14.35;;;11.60;82.00;;;;;;5075433;28;20049;-15
2022/11/11 08:29:19;;;;;;;17.85;13.88;;;11.80;82.00;;;;;;5075871;28;20107;-16
2022/11/11 08:31:45;;;;;;;17.90;12.27;;;11.90;81.70;;;;;;5075793;28;20024;-15
2022/11/11 08:34:11;;;;;;;19.20;14.52;;;12.20;81.10;;;;;;5075986;28;20036;-13
2022/11/11 08:36:37;;;;;;;17.92;13.80;;;12.30;81.50;;;;;;5076004;28;20055;-15
2022/11/11 08:39:03;;;;;;;19.23;13.35;;;12.50;81.10;;;;;;5075339;28;20032;-16
2022/11/11 08:41:29;;;;;;;18.48;13.32;;;12.70;81.50;;;;;;5075832;28;20185;-16
2022/11/11 08:43:55;;;;;;;17.90;13.10;;;12.90;81.20;;;;;;5075802;28;20028;-17
2022/11/11 08:46:23;;;;;;;22.60;15.40;;;13.10;80.80;;;;;;5076080;28;20161;-15
2022/11/11 08:48:49;;;;;;;26.23;16.67;;;13.40;80.60;;;;;;5075551;28;20032;-15
2022/11/11 08:51:16;;;;;;;24.02;14.70;;;13.60;80.50;;;;;;5075657;28;20024;-16
2022/11/11 08:53:42;;;;;;;20.52;14.55;;;13.80;80.60;;;;;;5075918;28;20028;-15
2022/11/11 08:56:08;;;;;;;18.92;14.00;;;14.00;80.20;;;;;;5075282;28;20461;-13
2022/11/11 08:58:34;;;;;;;16.77;13.10;;;14.20;79.90;;;;;;5075114;28;20120;-14
2022/11/11 09:01:00;;;;;;;17.23;13.25;;;14.50;79.50;;;;;;5073736;28;20036;-16
2022/11/11 09:03:27;;;;;;;15.82;11.18;;;14.60;78.20;;;;;;5075187;28;20400;-18
2022/11/11 09:05:53;;;;;;;15.98;12.10;;;14.80;79.00;;;;;;5075149;28;20028;-16
2022/11/11 09:08:18;;;;;;;16.00;11.63;;;15.00;78.10;;;;;;5075394;28;20391;-17
2022/11/11 09:10:44;;;;;;;14.00;10.73;;;15.20;78.50;;;;;;5075047;28;20097;-17
2022/11/11 09:13:10;;;;;;;11.95;9.43;;;15.40;79.00;;;;;;5074755;28;20020;-15
2022/11/11 09:15:36;;;;;;;16.30;9.38;;;15.80;78.90;;;;;;5073696;28;20426;-15
2022/11/11 09:18:03;;;;;;;13.88;8.75;;;16.10;78.50;;;;;;5074813;28;20024;-17
2022/11/11 09:20:28;;;;;;;10.15;7.28;;;16.50;77.60;;;;;;5074867;28;20111;-16
2022/11/11 09:22:54;;;;;;;9.80;7.20;;;16.80;75.50;;;;;;5074562;28;20120;-16
2022/11/11 09:25:22;;;;;;;9.02;6.53;;;17.10;72.50;;;;;;5075439;28;20056;-13
2022/11/11 09:27:59;;;;;;;7.57;5.47;;;17.40;73.60;;;;;;5074280;28;20052;-17
2022/11/11 09:30:27;;;;;;;7.20;4.68;;;17.50;68.50;;;;;;5074603;28;20040;-15
2022/11/11 09:32:53;;;;;;;6.15;4.35;;;17.60;68.80;;;;;;5074674;28;20021;-15
2022/11/11 09:35:19;;;;;;;6.68;4.50;;;17.60;71.10;;;;;;5073664;28;20154;-15
2022/11/11 09:38:01;;;;;;;7.25;3.83;;;17.70;68.80;;;;;;5074380;28;20017;-16
2022/11/11 09:40:50;;;;;;;5.20;3.60;;;17.70;70.50;;;;;;5074451;28;20044;-15
2022/11/11 09:43:40;;;;;;;6.03;3.85;;;17.60;69.60;;;;;;5074275;28;20077;-14
2022/11/11 09:46:43;;;;;;;6.72;4.03;;;17.60;69.20;;;;;;5074674;28;20063;-15
2022/11/11 09:49:36;;;;;;;7.40;4.28;;;17.70;66.50;;;;;;5074100;28;20044;-15
2022/11/11 09:52:21;;;;;;;5.63;3.85;;;17.70;66.80;;;;;;5073277;28;20480;-16
2022/11/11 09:54:57;;;;;;;5.65;3.95;;;17.90;65.00;;;;;;5074446;28;20024;-16
2022/11/11 09:57:32;;;;;;;5.70;3.67;;;18.00;68.00;;;;;;5073927;28;20361;-16
2022/11/11 10:00:01;;;;;;;3.35;2.97;;;18.20;67.70;;;;;;5074362;28;20493;-16
2022/11/11 10:02:51;;;;;;;7.20;3.92;;;18.40;67.40;;;;;;5073955;28;20031;-16
2022/11/11 10:05:36;;;;;;;5.63;3.70;;;18.60;63.20;;;;;;5072827;28;20376;-16
2022/11/11 10:08:19;;;;;;;4.63;3.70;;;18.70;63.60;;;;;;5074208;28;20017;-16
2022/11/11 10:10:53;;;;;;;5.53;3.33;;;18.90;65.10;;;;;;5073871;28;20081;-16
2022/11/11 10:13:29;;;;;;;4.03;3.20;;;19.10;66.00;;;;;;5074730;28;20029;-16
2022/11/11 10:16:01;;;;;;;6.93;4.10;;;19.30;65.10;;;;;;5073813;28;20028;-16
2022/11/11 10:18:26;;;;;;;6.25;3.83;;;19.50;65.30;;;;;;5072914;28;20488;-15
2022/11/11 10:20:55;;;;;;;4.75;3.50;;;19.70;62.70;;;;;;5073427;28;20025;-15
2022/11/11 10:23:33;;;;;;;5.63;3.45;;;19.80;61.40;;;;;;5073658;28;20036;-16
2022/11/11 10:26:25;;;;;;;4.75;3.63;;;19.90;61.30;;;;;;5073572;28;20028;-15
2022/11/11 10:28:53;;;;;;;4.53;3.20;;;20.00;58.40;;;;;;5072958;28;20083;-15
2022/11/11 10:31:22;;;;;;;4.03;2.78;;;20.20;58.20;;;;;;5073797;28;20025;-15
2022/11/11 10:34:04;;;;;;;3.33;2.50;;;20.40;61.30;;;;;;5073677;28;20017;-17
2022/11/11 10:36:31;;;;;;;7.18;3.30;;;20.90;61.50;;;;;;5073548;28;20044;-15
2022/11/11 10:39:01;;;;;;;2.95;2.47;;;21.20;59.80;;;;;;5073423;28;20031;-15
2022/11/11 10:41:27;;;;;;;4.63;2.42;;;21.60;59.50;;;;;;5073691;28;20063;-18
2022/11/11 10:43:53;;;;;;;2.58;2.10;;;21.80;58.40;;;;;;5073432;28;20460;-16
2022/11/11 10:46:37;;;;;;;3.70;2.30;;;21.80;55.80;;;;;;5073260;28;20035;-16
2022/11/11 10:49:12;;;;;;;5.60;2.88;;;21.90;56.60;;;;;;5073178;28;20021;-16
2022/11/11 10:51:50;;;;;;;4.53;2.85;;;21.90;56.90;;;;;;5073266;28;20074;-16
2022/11/11 10:54:32;;;;;;;3.08;2.70;;;21.90;56.10;;;;;;5073247;28;20024;-15
2022/11/11 10:57:24;;;;;;;3.80;2.72;;;22.00;54.90;;;;;;5072972;28;20387;-17
2022/11/11 10:59:56;;;;;;;3.70;2.80;;;22.00;53.70;;;;;;5064713;28;20043;-16
2022/11/11 11:02:49;;;;;;;2.85;2.22;;;21.90;55.50;;;;;;5073404;28;20016;-15
2022/11/11 11:05:23;;;;;;;2.78;2.47;;;21.90;55.90;;;;;;5073088;28;20082;-15
2022/11/11 11:07:52;;;;;;;2.80;2.30;;;22.10;55.90;;;;;;5073601;28;20090;-16
2022/11/11 11:10:25;;;;;;;3.00;2.47;;;22.20;55.10;;;;;;5073025;28;20027;-15
2022/11/11 11:13:02;;;;;;;3.13;2.22;;;22.30;53.70;;;;;;5072709;28;20031;-15
2022/11/11 11:15:30;;;;;;;4.00;2.50;;;22.20;54.80;;;;;;5073029;28;20021;-15
2022/11/11 11:18:08;;;;;;;3.35;2.65;;;22.10;54.30;;;;;;5072922;28;20507;-15
2022/11/11 11:20:34;;;;;;;3.97;2.80;;;21.90;54.00;;;;;;5072978;28;20028;-17
2022/11/11 11:23:01;;;;;;;3.75;2.50;;;21.70;54.20;;;;;;5071476;28;20052;-17
2022/11/11 11:25:32;;;;;;;3.90;2.80;;;21.50;55.50;;;;;;5073156;28;20023;-15
2022/11/11 11:28:11;;;;;;;4.63;3.22;;;21.40;54.70;;;;;;5072874;28;20048;-16
2022/11/11 11:30:38;;;;;;;6.53;2.88;;;21.20;55.00;;;;;;5076325;28;20025;-15
2022/11/11 11:33:05;;;;;;;3.30;2.40;;;20.90;56.40;;;;;;5076722;28;20040;-16
2022/11/11 11:35:31;;;;;;;4.28;2.85;;;20.70;57.30;;;;;;5076818;28;20025;-16
2022/11/11 11:37:57;;;;;;;5.35;2.80;;;20.60;56.90;;;;;;5076862;28;20024;-16
2022/11/11 11:40:23;;;;;;;4.47;3.13;;;20.60;55.60;;;;;;5076689;28;20021;-15
2022/11/11 11:42:49;;;;;;;2.90;2.65;;;20.60;55.80;;;;;;5075159;28;20032;-16
2022/11/11 11:45:28;;;;;;;3.47;2.60;;;20.70;57.50;;;;;;5076933;28;20016;-16
2022/11/11 11:48:28;;;;;;;4.18;3.05;;;20.80;56.80;;;;;;5077181;28;20028;-17
2022/11/11 11:51:25;;;;;;;3.15;2.53;;;20.90;53.90;;;;;;5076282;28;20467;-16
2022/11/11 11:54:10;;;;;;;4.47;2.70;;;21.00;55.90;;;;;;5071998;28;20032;-17
2022/11/11 11:56:43;;;;;;;3.25;2.50;;;21.40;55.00;;;;;;5076436;28;20036;-17
2022/11/11 11:59:09;;;;;;;4.65;2.53;;;21.70;56.00;;;;;;5076088;28;20041;-15
2022/11/11 12:01:57;;;;;;;2.53;2.10;;;21.90;55.80;;;;;;5076334;28;20105;-16
2022/11/11 12:04:32;;;;;;;3.55;2.30;;;22.20;54.50;;;;;;5076649;28;20039;-15
2022/11/11 12:07:19;;;;;;;5.82;2.70;;;22.40;52.80;;;;;;5076032;28;20033;-16
2022/11/11 12:09:51;;;;;;;4.22;2.72;;;22.40;48.80;;;;;;5076223;28;20506;-15
2022/11/11 12:12:22;;;;;;;2.47;2.17;;;22.30;51.70;;;;;;5076696;28;20036;-15
2022/11/11 12:15:00;;;;;;;2.15;1.95;;;22.10;52.40;;;;;;5076158;28;20044;-16
2022/11/11 12:17:32;;;;;;;2.75;2.10;;;22.20;53.10;;;;;;5076022;28;20036;-14
2022/11/11 12:20:17;;;;;;;3.63;2.40;;;22.40;52.50;;;;;;5076046;28;20497;-15
2022/11/11 12:22:51;;;;;;;3.20;2.40;;;22.60;51.80;;;;;;5076184;28;20025;-15
2022/11/11 12:25:35;;;;;;;4.35;2.50;;;22.90;50.80;;;;;;5075921;28;20086;-16
2022/11/11 12:28:28;;;;;;;2.97;2.17;;;23.00;49.30;;;;;;5075452;28;20055;-15
2022/11/11 12:31:12;;;;;;;3.08;2.20;;;23.00;50.90;;;;;;5075638;28;20396;-15
2022/11/11 12:34:19;;;;;;;3.40;2.65;;;23.10;49.50;;;;;;5075739;28;20112;-15
2022/11/11 12:37:08;;;;;;;2.92;2.58;;;22.90;48.80;;;;;;5075611;28;20039;-15
2022/11/11 12:39:54;;;;;;;2.65;2.38;;;22.60;50.60;;;;;;5075651;28;20104;-16
2022/11/11 12:42:49;;;;;;;4.38;2.50;;;22.50;51.90;;;;;;5075230;28;20047;-15
2022/11/11 12:45:24;;;;;;;3.25;2.33;;;22.50;49.30;;;;;;5075808;28;20034;-15
2022/11/11 12:48:22;;;;;;;4.10;2.17;;;22.60;51.00;;;;;;5075750;28;20033;-16
2022/11/11 12:50:57;;;;;;;3.95;2.38;;;22.90;50.10;;;;;;5041489;28;20032;-16
2022/11/11 12:53:29;;;;;;;3.25;2.45;;;23.00;51.00;;;;;;5075370;28;20039;-15
2022/11/11 12:56:37;;;;;;;3.05;2.45;;;23.20;50.40;;;;;;5075333;28;20484;-15
2022/11/11 12:59:11;;;;;;;2.63;1.90;;;23.40;48.80;;;;;;5013385;28;20026;-16
2022/11/11 13:02:09;;;;;;;3.33;2.20;;;23.80;50.10;;;;;;5013641;28;20402;-16
2022/11/11 13:04:56;;;;;;;2.55;2.15;;;24.10;48.90;;;;;;5013704;28;20092;-15
2022/11/11 13:07:33;;;;;;;10.20;3.33;;;24.30;46.20;;;;;;5013488;28;20426;-15
2022/11/11 13:10:21;;;;;;;4.43;2.42;;;24.20;47.80;;;;;;5013377;28;20129;-16
2022/11/11 13:12:55;;;;;;;2.65;2.33;;;24.10;47.70;;;;;;5013290;28;20557;-17
2022/11/11 13:15:26;;;;;;;3.30;2.28;;;24.10;48.00;;;;;;5013876;28;20457;-15
2022/11/11 13:17:52;;;;;;;3.45;2.20;;;24.10;48.20;;;;;;5013348;28;20044;-16
2022/11/11 13:20:49;;;;;;;3.28;2.33;;;24.20;48.60;;;;;;5013313;28;20061;-15
2022/11/11 13:23:16;;;;;;;4.18;2.25;;;24.10;47.60;;;;;;5013094;28;20041;-15
2022/11/11 13:25:49;;;;;;;3.50;2.38;;;24.20;48.80;;;;;;5013082;28;20038;-15
2022/11/11 13:28:18;;;;;;;;;;;24.20;48.20;;;;;;5013184;28;20045;-15
2022/11/11 13:30:54;;;;;;;3.38;1.92;;;24.20;47.80;;;;;;5012954;28;20435;-15
2022/11/11 13:33:24;;;;;;;2.60;2.00;;;24.30;48.20;;;;;;5054921;28;20036;-15
2022/11/11 13:36:00;;;;;;;2.90;2.20;;;24.20;47.30;;;;;;5074840;28;20028;-16
2022/11/11 13:38:32;;;;;;;3.67;1.98;;;24.20;47.60;;;;;;5074448;28;20119;-16
2022/11/11 13:41:32;;;;;;;2.50;1.92;;;24.20;47.20;;;;;;5074249;28;20549;-15
2022/11/11 13:44:06;;;;;;;3.05;2.20;;;24.20;46.80;;;;;;5070988;28;20044;-16
2022/11/11 13:46:39;;;;;;;3.53;2.22;;;24.30;47.60;;;;;;5074359;28;20369;-15
2022/11/11 13:49:25;;;;;;;3.22;2.28;;;24.30;47.90;;;;;;5074478;28;20028;-17
2022/11/11 13:52:05;;;;;;;2.90;2.47;;;24.30;47.80;;;;;;5074692;28;20023;-15
2022/11/11 13:54:40;;;;;;;3.35;2.00;;;24.30;47.00;;;;;;5073962;28;20099;-15
2022/11/11 13:57:12;;;;;;;2.42;2.10;;;24.10;47.80;;;;;;5073117;28;20094;-15
2022/11/11 13:59:42;;;;;;;2.38;2.00;;;24.00;48.10;;;;;;5073921;28;20101;-16
2022/11/11 14:02:17;;;;;;;2.78;1.98;;;23.90;48.60;;;;;;5074026;28;20078;-16
2022/11/11 14:05:04;;;;;;;3.78;2.28;;;23.90;48.70;;;;;;5073934;28;20031;-17
2022/11/11 14:07:46;;;;;;;3.15;2.28;;;23.70;47.50;;;;;;5073944;28;20044;-15
2022/11/11 14:10:18;;;;;;;2.40;2.03;;;23.40;49.30;;;;;;5073893;28;20036;-15
2022/11/11 14:12:45;;;;;;;2.63;1.88;;;23.10;50.10;;;;;;5070877;28;20418;-15
2022/11/11 14:15:40;;;;;;;2.17;1.90;;;22.90;50.90;;;;;;5111103;27;20448;-12
2022/11/11 14:18:34;;;;;;;2.58;2.00;;;22.70;51.20;;;;;;5111380;28;20104;-13
2022/11/11 14:21:00;;;;;;;2.60;1.90;;;22.50;51.50;;;;;;5111037;28;20457;-13